sensor_id;sensor_type;location;lat;lon;timestamp;pressure;altitude;pressure_sealevel;temperature
71960;BMP280;59832;51.146;14.024;2022-10-18T00:02:03;99344.06;;;13.71
71960;BMP280;59832;51.146;14.024;2022-10-18T00:04:29;99344.31;;;13.66
71960;BMP280;59832;51.146;14.024;2022-10-18T00:06:56;99358.19;;;13.65
71960;BMP280;59832;51.146;14.024;2022-10-18T00:09:22;99353.66;;;13.58
71960;BMP280;59832;51.146;14.024;2022-10-18T00:11:49;99364.31;;;13.60
71960;BMP280;59832;51.146;14.024;2022-10-18T00:14:16;99355.16;;;13.59
71960;BMP280;59832;51.146;14.024;2022-10-18T00:16:43;99366.44;;;13.58
71960;BMP280;59832;51.146;14.024;2022-10-18T00:19:09;99370.06;;;13.57
71960;BMP280;59832;51.146;14.024;2022-10-18T00:21:36;99372.16;;;13.52
71960;BMP280;59832;51.146;14.024;2022-10-18T00:24:02;99364.91;;;13.54
71960;BMP280;59832;51.146;14.024;2022-10-18T00:26:30;99369.78;;;13.43
71960;BMP280;59832;51.146;14.024;2022-10-18T00:29:00;99376.69;;;13.43
71960;BMP280;59832;51.146;14.024;2022-10-18T00:31:31;99380.63;;;13.40
71960;BMP280;59832;51.146;14.024;2022-10-18T00:34:04;99371.06;;;13.37
71960;BMP280;59832;51.146;14.024;2022-10-18T00:36:32;99372.06;;;13.33
71960;BMP280;59832;51.146;14.024;2022-10-18T00:39:00;99366.63;;;13.34
71960;BMP280;59832;51.146;14.024;2022-10-18T00:41:30;99369.81;;;13.31
71960;BMP280;59832;51.146;14.024;2022-10-18T00:46:32;99369.66;;;13.24
71960;BMP280;59832;51.146;14.024;2022-10-18T00:49:04;99372.66;;;13.26
71960;BMP280;59832;51.146;14.024;2022-10-18T00:51:50;99360.69;;;13.14
71960;BMP280;59832;51.146;14.024;2022-10-18T00:54:19;99356.06;;;13.20
71960;BMP280;59832;51.146;14.024;2022-10-18T00:56:46;99352.53;;;13.09
71960;BMP280;59832;51.146;14.024;2022-10-18T00:59:14;99357.31;;;13.10
71960;BMP280;59832;51.146;14.024;2022-10-18T01:01:41;99355.66;;;13.02
71960;BMP280;59832;51.146;14.024;2022-10-18T01:04:08;99359.28;;;13.01
71960;BMP280;59832;51.146;14.024;2022-10-18T01:26:16;99352.63;;;12.85
71960;BMP280;59832;51.146;14.024;2022-10-18T01:29:00;99354.78;;;12.83
71960;BMP280;59832;51.146;14.024;2022-10-18T01:31:38;99354.34;;;12.80
71960;BMP280;59832;51.146;14.024;2022-10-18T01:34:08;99357.59;;;12.77
71960;BMP280;59832;51.146;14.024;2022-10-18T01:36:41;99362.50;;;12.70
71960;BMP280;59832;51.146;14.024;2022-10-18T01:39:15;99358.66;;;12.76
71960;BMP280;59832;51.146;14.024;2022-10-18T01:41:44;99363.34;;;12.74
71960;BMP280;59832;51.146;14.024;2022-10-18T01:44:16;99357.06;;;12.72
71960;BMP280;59832;51.146;14.024;2022-10-18T01:46:45;99356.97;;;12.68
71960;BMP280;59832;51.146;14.024;2022-10-18T01:49:12;99355.91;;;12.69
71960;BMP280;59832;51.146;14.024;2022-10-18T01:51:39;99362.41;;;12.67
71960;BMP280;59832;51.146;14.024;2022-10-18T01:54:05;99355.41;;;12.64
71960;BMP280;59832;51.146;14.024;2022-10-18T01:56:46;99359.00;;;12.63
71960;BMP280;59832;51.146;14.024;2022-10-18T02:05:28;99355.31;;;12.60
71960;BMP280;59832;51.146;14.024;2022-10-18T02:08:02;99356.03;;;12.61
71960;BMP280;59832;51.146;14.024;2022-10-18T02:10:50;99358.53;;;12.57
71960;BMP280;59832;51.146;14.024;2022-10-18T02:13:19;99356.59;;;12.54
71960;BMP280;59832;51.146;14.024;2022-10-18T02:15:49;99350.00;;;12.53
71960;BMP280;59832;51.146;14.024;2022-10-18T02:18:21;99354.59;;;12.48
71960;BMP280;59832;51.146;14.024;2022-10-18T02:20:50;99353.41;;;12.45
71960;BMP280;59832;51.146;14.024;2022-10-18T02:23:19;99354.09;;;12.42
71960;BMP280;59832;51.146;14.024;2022-10-18T02:25:46;99354.09;;;12.42
71960;BMP280;59832;51.146;14.024;2022-10-18T02:28:13;99353.47;;;12.33
71960;BMP280;59832;51.146;14.024;2022-10-18T02:30:46;99353.56;;;12.37
71960;BMP280;59832;51.146;14.024;2022-10-18T02:33:55;99357.19;;;12.36
71960;BMP280;59832;51.146;14.024;2022-10-18T02:36:42;99357.41;;;12.30
71960;BMP280;59832;51.146;14.024;2022-10-18T02:39:16;99364.75;;;12.32
71960;BMP280;59832;51.146;14.024;2022-10-18T02:41:44;99354.84;;;12.30
71960;BMP280;59832;51.146;14.024;2022-10-18T02:44:10;99356.25;;;12.28
71960;BMP280;59832;51.146;14.024;2022-10-18T02:46:37;99359.44;;;12.25
71960;BMP280;59832;51.146;14.024;2022-10-18T02:49:04;99355.00;;;12.22
71960;BMP280;59832;51.146;14.024;2022-10-18T02:51:31;99365.22;;;12.22
71960;BMP280;59832;51.146;14.024;2022-10-18T02:53:57;99365.50;;;12.20
71960;BMP280;59832;51.146;14.024;2022-10-18T02:56:24;99349.56;;;12.23
71960;BMP280;59832;51.146;14.024;2022-10-18T02:58:50;99364.13;;;12.11
71960;BMP280;59832;51.146;14.024;2022-10-18T03:01:17;99371.19;;;12.14
71960;BMP280;59832;51.146;14.024;2022-10-18T03:03:43;99367.88;;;12.13
71960;BMP280;59832;51.146;14.024;2022-10-18T03:06:10;99369.91;;;12.08
71960;BMP280;59832;51.146;14.024;2022-10-18T03:08:36;99365.31;;;12.13
71960;BMP280;59832;51.146;14.024;2022-10-18T03:11:03;99365.63;;;12.12
71960;BMP280;59832;51.146;14.024;2022-10-18T03:13:29;99373.06;;;12.17
71960;BMP280;59832;51.146;14.024;2022-10-18T03:15:56;99375.22;;;12.15
71960;BMP280;59832;51.146;14.024;2022-10-18T03:18:22;99382.00;;;12.11
71960;BMP280;59832;51.146;14.024;2022-10-18T03:20:49;99380.13;;;12.08
71960;BMP280;59832;51.146;14.024;2022-10-18T03:23:15;99380.94;;;12.12
71960;BMP280;59832;51.146;14.024;2022-10-18T03:25:42;99373.94;;;12.09
71960;BMP280;59832;51.146;14.024;2022-10-18T03:28:11;99380.00;;;12.04
71960;BMP280;59832;51.146;14.024;2022-10-18T03:30:38;99381.19;;;12.07
71960;BMP280;59832;51.146;14.024;2022-10-18T03:33:05;99372.66;;;12.03
71960;BMP280;59832;51.146;14.024;2022-10-18T03:35:31;99373.50;;;11.95
71960;BMP280;59832;51.146;14.024;2022-10-18T03:37:58;99376.50;;;11.97
71960;BMP280;59832;51.146;14.024;2022-10-18T03:40:24;99377.13;;;11.94
71960;BMP280;59832;51.146;14.024;2022-10-18T03:42:51;99376.81;;;11.95
71960;BMP280;59832;51.146;14.024;2022-10-18T03:45:17;99374.59;;;11.94
71960;BMP280;59832;51.146;14.024;2022-10-18T03:47:44;99371.84;;;11.87
71960;BMP280;59832;51.146;14.024;2022-10-18T03:50:10;99376.38;;;11.81
71960;BMP280;59832;51.146;14.024;2022-10-18T03:52:36;99372.03;;;11.81
71960;BMP280;59832;51.146;14.024;2022-10-18T03:55:03;99365.88;;;11.82
71960;BMP280;59832;51.146;14.024;2022-10-18T03:57:30;99363.34;;;11.82
71960;BMP280;59832;51.146;14.024;2022-10-18T03:59:56;99358.44;;;11.90
71960;BMP280;59832;51.146;14.024;2022-10-18T04:02:23;99361.84;;;11.81
71960;BMP280;59832;51.146;14.024;2022-10-18T04:04:49;99360.34;;;11.80
71960;BMP280;59832;51.146;14.024;2022-10-18T04:07:16;99358.22;;;11.82
71960;BMP280;59832;51.146;14.024;2022-10-18T04:09:43;99356.31;;;11.79
71960;BMP280;59832;51.146;14.024;2022-10-18T04:12:09;99346.88;;;11.80
71960;BMP280;59832;51.146;14.024;2022-10-18T04:14:36;99349.28;;;11.76
71960;BMP280;59832;51.146;14.024;2022-10-18T04:17:02;99358.44;;;11.90
71960;BMP280;59832;51.146;14.024;2022-10-18T04:19:30;99355.44;;;11.75
71960;BMP280;59832;51.146;14.024;2022-10-18T04:21:56;99356.44;;;11.71
71960;BMP280;59832;51.146;14.024;2022-10-18T04:24:23;99360.78;;;11.70
71960;BMP280;59832;51.146;14.024;2022-10-18T04:26:49;99362.34;;;11.75
71960;BMP280;59832;51.146;14.024;2022-10-18T04:29:16;99361.72;;;11.78
71960;BMP280;59832;51.146;14.024;2022-10-18T04:31:42;99366.53;;;11.79
71960;BMP280;59832;51.146;14.024;2022-10-18T04:34:09;99372.88;;;11.86
71960;BMP280;59832;51.146;14.024;2022-10-18T04:36:36;99368.63;;;11.90
71960;BMP280;59832;51.146;14.024;2022-10-18T04:39:02;99365.97;;;11.98
71960;BMP280;59832;51.146;14.024;2022-10-18T04:41:29;99368.97;;;12.00
71960;BMP280;59832;51.146;14.024;2022-10-18T04:43:55;99367.69;;;12.06
71960;BMP280;59832;51.146;14.024;2022-10-18T04:46:22;99367.00;;;12.09
71960;BMP280;59832;51.146;14.024;2022-10-18T04:48:48;99365.31;;;12.13
71960;BMP280;59832;51.146;14.024;2022-10-18T04:51:15;99363.00;;;12.08
71960;BMP280;59832;51.146;14.024;2022-10-18T04:53:41;99364.13;;;12.11
71960;BMP280;59832;51.146;14.024;2022-10-18T04:56:08;99365.41;;;12.17
71960;BMP280;59832;51.146;14.024;2022-10-18T04:58:34;99366.25;;;12.21
71960;BMP280;59832;51.146;14.024;2022-10-18T05:01:06;99359.84;;;12.27
71960;BMP280;59832;51.146;14.024;2022-10-18T05:03:33;99354.56;;;12.20
71960;BMP280;59832;51.146;14.024;2022-10-18T05:06:00;99361.16;;;12.21
71960;BMP280;59832;51.146;14.024;2022-10-18T05:08:29;99357.66;;;12.25
71960;BMP280;59832;51.146;14.024;2022-10-18T05:10:56;99356.56;;;12.26
71960;BMP280;59832;51.146;14.024;2022-10-18T05:13:23;99361.34;;;12.28
71960;BMP280;59832;51.146;14.024;2022-10-18T05:15:50;99359.56;;;12.28
71960;BMP280;59832;51.146;14.024;2022-10-18T05:18:16;99362.50;;;12.30
71960;BMP280;59832;51.146;14.024;2022-10-18T05:20:43;99361.88;;;12.34
71960;BMP280;59832;51.146;14.024;2022-10-18T05:23:09;99365.81;;;12.43
71960;BMP280;59832;51.146;14.024;2022-10-18T05:25:40;99361.31;;;12.40
71960;BMP280;59832;51.146;14.024;2022-10-18T05:28:07;99355.91;;;12.42
71960;BMP280;59832;51.146;14.024;2022-10-18T05:30:41;99358.22;;;12.47
71960;BMP280;59832;51.146;14.024;2022-10-18T05:33:08;99358.72;;;12.52
71960;BMP280;59832;51.146;14.024;2022-10-18T05:35:34;99362.75;;;12.53
71960;BMP280;59832;51.146;14.024;2022-10-18T05:38:03;99360.97;;;12.54
71960;BMP280;59832;51.146;14.024;2022-10-18T05:40:37;99359.25;;;12.58
71960;BMP280;59832;51.146;14.024;2022-10-18T05:43:03;99361.78;;;12.58
71960;BMP280;59832;51.146;14.024;2022-10-18T05:45:30;99360.06;;;12.62
71960;BMP280;59832;51.146;14.024;2022-10-18T05:47:56;99363.47;;;12.66
71960;BMP280;59832;51.146;14.024;2022-10-18T05:50:23;99362.16;;;12.72
71960;BMP280;59832;51.146;14.024;2022-10-18T05:52:49;99353.94;;;12.78
71960;BMP280;59832;51.146;14.024;2022-10-18T05:55:16;99358.09;;;12.83
71960;BMP280;59832;51.146;14.024;2022-10-18T05:57:42;99361.38;;;12.84
71960;BMP280;59832;51.146;14.024;2022-10-18T06:00:09;99357.84;;;12.88
71960;BMP280;59832;51.146;14.024;2022-10-18T06:02:36;99357.59;;;12.93
71960;BMP280;59832;51.146;14.024;2022-10-18T06:05:03;99352.19;;;12.95
71960;BMP280;59832;51.146;14.024;2022-10-18T06:07:29;99356.59;;;12.98
71960;BMP280;59832;51.146;14.024;2022-10-18T06:09:56;99352.03;;;13.03
71960;BMP280;59832;51.146;14.024;2022-10-18T06:12:23;99345.13;;;13.04
71960;BMP280;59832;51.146;14.024;2022-10-18T06:14:49;99357.19;;;13.07
71960;BMP280;59832;51.146;14.024;2022-10-18T06:17:16;99348.47;;;13.08
71960;BMP280;59832;51.146;14.024;2022-10-18T06:19:43;99345.00;;;13.16
71960;BMP280;59832;51.146;14.024;2022-10-18T06:22:10;99337.94;;;13.09
71960;BMP280;59832;51.146;14.024;2022-10-18T06:24:37;99335.28;;;13.21
71960;BMP280;59832;51.146;14.024;2022-10-18T06:27:04;99327.44;;;13.30
71960;BMP280;59832;51.146;14.024;2022-10-18T06:29:35;99313.41;;;13.55
71960;BMP280;59832;51.146;14.024;2022-10-18T06:32:03;99312.50;;;13.48
71960;BMP280;59832;51.146;14.024;2022-10-18T06:34:30;99319.97;;;13.56
71960;BMP280;59832;51.146;14.024;2022-10-18T06:36:56;99330.53;;;13.70
71960;BMP280;59832;51.146;14.024;2022-10-18T06:39:24;99329.63;;;13.63
71960;BMP280;59832;51.146;14.024;2022-10-18T06:41:50;99321.03;;;13.71
71960;BMP280;59832;51.146;14.024;2022-10-18T06:44:17;99318.56;;;13.94
71960;BMP280;59832;51.146;14.024;2022-10-18T06:46:44;99310.28;;;14.00
71960;BMP280;59832;51.146;14.024;2022-10-18T06:49:12;99307.28;;;14.33
71960;BMP280;59832;51.146;14.024;2022-10-18T06:51:44;99298.50;;;14.76
71960;BMP280;59832;51.146;14.024;2022-10-18T06:54:11;99290.28;;;14.67
71960;BMP280;59832;51.146;14.024;2022-10-18T06:56:44;99281.34;;;14.80
71960;BMP280;59832;51.146;14.024;2022-10-18T06:59:10;99289.38;;;14.59
71960;BMP280;59832;51.146;14.024;2022-10-18T07:01:37;99315.00;;;14.37
71960;BMP280;59832;51.146;14.024;2022-10-18T07:04:03;99321.47;;;14.31
71960;BMP280;59832;51.146;14.024;2022-10-18T07:06:30;99317.03;;;14.27
71960;BMP280;59832;51.146;14.024;2022-10-18T07:08:56;99314.53;;;14.31
71960;BMP280;59832;51.146;14.024;2022-10-18T07:11:25;99319.03;;;14.38
71960;BMP280;59832;51.146;14.024;2022-10-18T07:13:53;99325.53;;;14.32
71960;BMP280;59832;51.146;14.024;2022-10-18T07:16:20;99312.78;;;14.35
71960;BMP280;59832;51.146;14.024;2022-10-18T07:18:50;99312.16;;;14.42
71960;BMP280;59832;51.146;14.024;2022-10-18T07:21:19;99328.78;;;14.51
71960;BMP280;59832;51.146;14.024;2022-10-18T07:23:47;99330.38;;;14.59
71960;BMP280;59832;51.146;14.024;2022-10-18T07:26:24;99323.75;;;14.55
71960;BMP280;59832;51.146;14.024;2022-10-18T07:28:57;99319.28;;;14.52
71960;BMP280;59832;51.146;14.024;2022-10-18T07:31:24;99319.47;;;14.62
71960;BMP280;59832;51.146;14.024;2022-10-18T07:33:51;99315.66;;;14.53
71960;BMP280;59832;51.146;14.024;2022-10-18T07:36:31;99316.41;;;14.53
71960;BMP280;59832;51.146;14.024;2022-10-18T07:38:58;99317.47;;;14.52
71960;BMP280;59832;51.146;14.024;2022-10-18T07:41:25;99331.28;;;14.48
71960;BMP280;59832;51.146;14.024;2022-10-18T07:43:52;99325.47;;;14.47
71960;BMP280;59832;51.146;14.024;2022-10-18T07:46:20;99329.25;;;14.76
71960;BMP280;59832;51.146;14.024;2022-10-18T07:48:47;99339.03;;;14.70
71960;BMP280;59832;51.146;14.024;2022-10-18T07:51:14;99335.59;;;14.63
71960;BMP280;59832;51.146;14.024;2022-10-18T07:53:40;99330.47;;;14.63
71960;BMP280;59832;51.146;14.024;2022-10-18T07:56:09;99318.81;;;14.65
71960;BMP280;59832;51.146;14.024;2022-10-18T07:58:49;99316.78;;;14.74
71960;BMP280;59832;51.146;14.024;2022-10-18T08:01:19;99319.53;;;14.89
71960;BMP280;59832;51.146;14.024;2022-10-18T08:03:46;99335.03;;;14.96
71960;BMP280;59832;51.146;14.024;2022-10-18T08:06:14;99326.94;;;15.16
71960;BMP280;59832;51.146;14.024;2022-10-18T08:08:41;99330.22;;;14.94
71960;BMP280;59832;51.146;14.024;2022-10-18T08:11:11;99326.50;;;14.88
71960;BMP280;59832;51.146;14.024;2022-10-18T08:13:37;99331.66;;;14.69
71960;BMP280;59832;51.146;14.024;2022-10-18T08:16:06;99324.66;;;14.66
71960;BMP280;59832;51.146;14.024;2022-10-18T08:18:33;99319.78;;;14.57
71960;BMP280;59832;51.146;14.024;2022-10-18T08:21:04;99322.28;;;14.76
71960;BMP280;59832;51.146;14.024;2022-10-18T08:23:32;99321.09;;;14.70
71960;BMP280;59832;51.146;14.024;2022-10-18T08:26:07;99311.78;;;14.62
71960;BMP280;59832;51.146;14.024;2022-10-18T08:28:34;99309.69;;;14.68
71960;BMP280;59832;51.146;14.024;2022-10-18T08:31:07;99315.31;;;14.54
71960;BMP280;59832;51.146;14.024;2022-10-18T08:33:33;99309.00;;;14.48
71960;BMP280;59832;51.146;14.024;2022-10-18T08:36:03;99316.00;;;14.51
71960;BMP280;59832;51.146;14.024;2022-10-18T08:38:33;99315.53;;;14.46
71960;BMP280;59832;51.146;14.024;2022-10-18T08:41:22;99315.53;;;14.46
71960;BMP280;59832;51.146;14.024;2022-10-18T08:44:19;99293.69;;;14.52
71960;BMP280;59832;51.146;14.024;2022-10-18T08:46:49;99287.53;;;14.56
71960;BMP280;59832;51.146;14.024;2022-10-18T08:49:41;99281.66;;;14.56
71960;BMP280;59832;51.146;14.024;2022-10-18T08:52:37;99272.44;;;14.51
71960;BMP280;59832;51.146;14.024;2022-10-18T08:55:11;99271.59;;;14.66
71960;BMP280;59832;51.146;14.024;2022-10-18T08:57:41;99269.19;;;14.77
71960;BMP280;59832;51.146;14.024;2022-10-18T09:00:15;99260.06;;;14.76
71960;BMP280;59832;51.146;14.024;2022-10-18T09:02:59;99253.13;;;14.80
71960;BMP280;59832;51.146;14.024;2022-10-18T09:14:00;99252.66;;;14.97
71960;BMP280;59832;51.146;14.024;2022-10-18T09:16:43;99247.47;;;14.94
71960;BMP280;59832;51.146;14.024;2022-10-18T09:19:48;99261.97;;;14.83
71960;BMP280;59832;51.146;14.024;2022-10-18T09:22:31;99262.72;;;15.09
71960;BMP280;59832;51.146;14.024;2022-10-18T09:25:17;99272.19;;;15.05
71960;BMP280;59832;51.146;14.024;2022-10-18T09:27:51;99263.03;;;15.04
71960;BMP280;59832;51.146;14.024;2022-10-18T09:31:22;99250.34;;;15.15
71960;BMP280;59832;51.146;14.024;2022-10-18T09:36:21;99239.03;;;15.19
71960;BMP280;59832;51.146;14.024;2022-10-18T09:38:52;99234.66;;;15.20
71960;BMP280;59832;51.146;14.024;2022-10-18T09:41:28;99226.56;;;15.18
71960;BMP280;59832;51.146;14.024;2022-10-18T09:44:22;99235.88;;;15.03
71960;BMP280;59832;51.146;14.024;2022-10-18T09:46:55;99237.13;;;15.13
71960;BMP280;59832;51.146;14.024;2022-10-18T09:49:30;99217.25;;;15.06
71960;BMP280;59832;51.146;14.024;2022-10-18T09:52:00;99222.78;;;15.38
71960;BMP280;59832;51.146;14.024;2022-10-18T09:54:34;99219.59;;;15.45
71960;BMP280;59832;51.146;14.024;2022-10-18T09:57:06;99217.38;;;15.47
71960;BMP280;59832;51.146;14.024;2022-10-18T09:59:49;99211.59;;;15.50
71960;BMP280;59832;51.146;14.024;2022-10-18T10:02:18;99196.31;;;15.64
71960;BMP280;59832;51.146;14.024;2022-10-18T10:04:44;99203.56;;;15.92
71960;BMP280;59832;51.146;14.024;2022-10-18T10:07:13;99192.81;;;15.79
71960;BMP280;59832;51.146;14.024;2022-10-18T10:10:23;99188.09;;;15.85
71960;BMP280;59832;51.146;14.024;2022-10-18T10:13:16;99178.69;;;15.96
71960;BMP280;59832;51.146;14.024;2022-10-18T10:15:53;99170.91;;;15.89
71960;BMP280;59832;51.146;14.024;2022-10-18T10:18:23;99172.75;;;15.88
71960;BMP280;59832;51.146;14.024;2022-10-18T10:20:53;99171.53;;;16.19
71960;BMP280;59832;51.146;14.024;2022-10-18T10:23:24;99172.72;;;16.28
71960;BMP280;59832;51.146;14.024;2022-10-18T10:25:53;99155.63;;;16.57
71960;BMP280;59832;51.146;14.024;2022-10-18T10:28:32;99168.50;;;16.57
71960;BMP280;59832;51.146;14.024;2022-10-18T10:31:24;99156.75;;;16.56
71960;BMP280;59832;51.146;14.024;2022-10-18T10:34:16;99162.84;;;16.34
71960;BMP280;59832;51.146;14.024;2022-10-18T10:39:14;99147.50;;;16.45
71960;BMP280;59832;51.146;14.024;2022-10-18T10:41:55;99143.91;;;16.05
71960;BMP280;59832;51.146;14.024;2022-10-18T10:44:24;99150.66;;;16.20
71960;BMP280;59832;51.146;14.024;2022-10-18T10:46:52;99152.31;;;16.02
71960;BMP280;59832;51.146;14.024;2022-10-18T10:49:22;99200.41;;;16.05
71960;BMP280;59832;51.146;14.024;2022-10-18T10:52:16;99238.25;;;15.75
71960;BMP280;59832;51.146;14.024;2022-10-18T10:54:53;99236.69;;;15.67
71960;BMP280;59832;51.146;14.024;2022-10-18T10:57:31;99231.31;;;15.79
71960;BMP280;59832;51.146;14.024;2022-10-18T10:59:58;99226.22;;;15.82
71960;BMP280;59832;51.146;14.024;2022-10-18T11:02:29;99255.06;;;15.69
71960;BMP280;59832;51.146;14.024;2022-10-18T11:05:15;99254.97;;;15.62
71960;BMP280;59832;51.146;14.024;2022-10-18T11:07:43;99268.38;;;15.48
71960;BMP280;59832;51.146;14.024;2022-10-18T11:10:17;99277.97;;;15.28
71960;BMP280;59832;51.146;14.024;2022-10-18T11:15:41;99294.25;;;14.87
71960;BMP280;59832;51.146;14.024;2022-10-18T11:18:21;99285.28;;;14.74
71960;BMP280;59832;51.146;14.024;2022-10-18T11:21:10;99274.97;;;14.70
71960;BMP280;59832;51.146;14.024;2022-10-18T11:23:40;99265.47;;;14.71
71960;BMP280;59832;51.146;14.024;2022-10-18T11:32:05;99250.16;;;14.78
71960;BMP280;59832;51.146;14.024;2022-10-18T11:37:47;99259.00;;;14.81
71960;BMP280;59832;51.146;14.024;2022-10-18T11:40:40;99258.75;;;14.89
71960;BMP280;59832;51.146;14.024;2022-10-18T11:43:36;99252.59;;;14.94
71960;BMP280;59832;51.146;14.024;2022-10-18T11:56:58;99266.06;;;15.13
71960;BMP280;59832;51.146;14.024;2022-10-18T11:59:37;99276.03;;;15.18
71960;BMP280;59832;51.146;14.024;2022-10-18T12:05:08;99270.16;;;15.18
71960;BMP280;59832;51.146;14.024;2022-10-18T12:10:42;99271.34;;;15.24
71960;BMP280;59832;51.146;14.024;2022-10-18T12:13:42;99280.06;;;15.19
71960;BMP280;59832;51.146;14.024;2022-10-18T12:16:10;99288.66;;;15.04
71960;BMP280;59832;51.146;14.024;2022-10-18T12:19:10;99288.84;;;14.92
71960;BMP280;59832;51.146;14.024;2022-10-18T12:21:33;99294.72;;;14.93
71960;BMP280;59832;51.146;14.024;2022-10-18T12:26:31;99298.75;;;14.94
71960;BMP280;59832;51.146;14.024;2022-10-18T12:29:23;99297.28;;;14.93
71960;BMP280;59832;51.146;14.024;2022-10-18T12:34:53;99306.00;;;14.88
71960;BMP280;59832;51.146;14.024;2022-10-18T12:40:20;99307.25;;;14.98
71960;BMP280;59832;51.146;14.024;2022-10-18T12:42:50;99301.38;;;14.97
71960;BMP280;59832;51.146;14.024;2022-10-18T12:45:31;99307.53;;;14.93
71960;BMP280;59832;51.146;14.024;2022-10-18T12:48:06;99316.59;;;14.87
71960;BMP280;59832;51.146;14.024;2022-10-18T12:50:41;99318.41;;;14.86
71960;BMP280;59832;51.146;14.024;2022-10-18T12:55:37;99324.13;;;14.76
71960;BMP280;59832;51.146;14.024;2022-10-18T12:58:28;99332.47;;;14.73
71960;BMP280;59832;51.146;14.024;2022-10-18T13:00:57;99321.56;;;14.76
71960;BMP280;59832;51.146;14.024;2022-10-18T13:05:56;99326.91;;;14.67
71960;BMP280;59832;51.146;14.024;2022-10-18T13:08:36;99326.53;;;14.69
71960;BMP280;59832;51.146;14.024;2022-10-18T13:13:51;99317.78;;;14.70
71960;BMP280;59832;51.146;14.024;2022-10-18T13:19:13;99334.22;;;14.69
71960;BMP280;59832;51.146;14.024;2022-10-18T13:24:46;99327.69;;;14.71
71960;BMP280;59832;51.146;14.024;2022-10-18T13:27:43;99339.84;;;14.74
71960;BMP280;59832;51.146;14.024;2022-10-18T13:41:21;99344.22;;;14.74
71960;BMP280;59832;51.146;14.024;2022-10-18T14:08:14;99337.94;;;14.71
71960;BMP280;59832;51.146;14.024;2022-10-18T14:11:04;99329.84;;;14.69
71960;BMP280;59832;51.146;14.024;2022-10-18T14:13:50;99329.91;;;14.73
71960;BMP280;59832;51.146;14.024;2022-10-18T14:16:32;99321.19;;;14.77
71960;BMP280;59832;51.146;14.024;2022-10-18T14:19:09;99317.16;;;14.76
71960;BMP280;59832;51.146;14.024;2022-10-18T14:21:42;99315.69;;;14.75
71960;BMP280;59832;51.146;14.024;2022-10-18T14:24:18;99313.91;;;14.79
71960;BMP280;59832;51.146;14.024;2022-10-18T14:26:46;99306.91;;;14.76
71960;BMP280;59832;51.146;14.024;2022-10-18T14:29:17;99301.09;;;14.79
71960;BMP280;59832;51.146;14.024;2022-10-18T14:31:52;99296.72;;;14.80
71960;BMP280;59832;51.146;14.024;2022-10-18T14:34:19;99302.16;;;14.78
71960;BMP280;59832;51.146;14.024;2022-10-18T14:36:48;99315.72;;;14.79
71960;BMP280;59832;51.146;14.024;2022-10-18T14:39:20;99331.81;;;14.76
71960;BMP280;59832;51.146;14.024;2022-10-18T14:41:53;99333.91;;;14.70
71960;BMP280;59832;51.146;14.024;2022-10-18T14:44:24;99334.22;;;14.69
71960;BMP280;59832;51.146;14.024;2022-10-18T14:46:58;99337.22;;;14.71
71960;BMP280;59832;51.146;14.024;2022-10-18T14:49:25;99338.22;;;14.66
71960;BMP280;59832;51.146;14.024;2022-10-18T14:51:54;99348.47;;;14.66
71960;BMP280;59832;51.146;14.024;2022-10-18T14:54:31;99349.56;;;14.65
71960;BMP280;59832;51.146;14.024;2022-10-18T14:56:59;99350.28;;;14.66
71960;BMP280;59832;51.146;14.024;2022-10-18T14:59:29;99352.38;;;14.60
71960;BMP280;59832;51.146;14.024;2022-10-18T15:02:00;99355.69;;;14.61
71960;BMP280;59832;51.146;14.024;2022-10-18T15:04:28;99356.44;;;14.61
71960;BMP280;59832;51.146;14.024;2022-10-18T15:07:02;99357.47;;;14.57
71960;BMP280;59832;51.146;14.024;2022-10-18T15:09:30;99354.94;;;14.60
71960;BMP280;59832;51.146;14.024;2022-10-18T15:11:59;99348.00;;;14.61
71960;BMP280;59832;51.146;14.024;2022-10-18T15:14:27;99343.50;;;14.54
71960;BMP280;59832;51.146;14.024;2022-10-18T15:17:00;99350.84;;;14.56
71960;BMP280;59832;51.146;14.024;2022-10-18T15:19:32;99349.72;;;14.53
71960;BMP280;59832;51.146;14.024;2022-10-18T15:22:04;99350.41;;;14.50
71960;BMP280;59832;51.146;14.024;2022-10-18T15:25:22;99341.59;;;14.51
71960;BMP280;59832;51.146;14.024;2022-10-18T15:27:56;99339.41;;;14.50
71960;BMP280;59832;51.146;14.024;2022-10-18T15:30:28;99343.38;;;14.47
71960;BMP280;59832;51.146;14.024;2022-10-18T15:32:59;99343.31;;;14.44
71960;BMP280;59832;51.146;14.024;2022-10-18T15:35:28;99352.06;;;14.43
71960;BMP280;59832;51.146;14.024;2022-10-18T15:37:57;99350.25;;;14.43
71960;BMP280;59832;51.146;14.024;2022-10-18T15:40:30;99363.41;;;14.42
71960;BMP280;59832;51.146;14.024;2022-10-18T15:45:52;99364.41;;;14.37
71960;BMP280;59832;51.146;14.024;2022-10-18T15:48:24;99369.81;;;14.32
71960;BMP280;59832;51.146;14.024;2022-10-18T15:50:56;99366.50;;;14.32
71960;BMP280;59832;51.146;14.024;2022-10-18T15:53:33;99366.44;;;14.28
71960;BMP280;59832;51.146;14.024;2022-10-18T15:56:06;99369.31;;;14.26
71960;BMP280;59832;51.146;14.024;2022-10-18T15:58:44;99377.28;;;14.21
71960;BMP280;59832;51.146;14.024;2022-10-18T16:03:44;99381.91;;;14.16
71960;BMP280;59832;51.146;14.024;2022-10-18T16:06:13;99377.16;;;14.14
71960;BMP280;59832;51.146;14.024;2022-10-18T16:08:53;99376.72;;;14.12
71960;BMP280;59832;51.146;14.024;2022-10-18T16:11:22;99383.66;;;14.12
71960;BMP280;59832;51.146;14.024;2022-10-18T16:13:49;99390.63;;;14.11
71960;BMP280;59832;51.146;14.024;2022-10-18T16:16:24;99385.41;;;14.08
71960;BMP280;59832;51.146;14.024;2022-10-18T16:18:51;99392.44;;;14.11
71960;BMP280;59832;51.146;14.024;2022-10-18T16:21:38;99385.41;;;14.08
71960;BMP280;59832;51.146;14.024;2022-10-18T16:24:05;99387.22;;;14.07
71960;BMP280;59832;51.146;14.024;2022-10-18T16:26:32;99381.03;;;14.08
71960;BMP280;59832;51.146;14.024;2022-10-18T16:28:59;99383.66;;;14.12
71960;BMP280;59832;51.146;14.024;2022-10-18T16:31:29;99388.06;;;14.11
71960;BMP280;59832;51.146;14.024;2022-10-18T16:33:56;99380.38;;;14.11
71960;BMP280;59832;51.146;14.024;2022-10-18T16:36:25;99381.84;;;14.12